Time;durP1;ratioP1;P1;durP2;ratioP2;P2;SDS_P1;SDS_P2;PMS_P1;PMS_P2;Temp;Humidity;BMP_temperature;BMP_pressure;BME280_temperature;BME280_humidity;BME280_pressure;Samples;Min_cycle;Max_cycle;Signal;HPM_P1;HPM_P2
2023/03/16 00:01:04;;;;;;;6.63;3.93;;;1.00;99.90;;;;;;5090462;27;20192;-64
2023/03/16 00:03:32;;;;;;;6.93;3.30;;;1.00;99.90;;;;;;5096962;27;20748;-65
2023/03/16 00:05:59;;;;;;;6.57;3.23;;;1.00;99.90;;;;;;5087118;27;20296;-64
2023/03/16 00:08:26;;;;;;;5.13;3.20;;;1.00;99.90;;;;;;5100570;27;20408;-65
2023/03/16 00:10:53;;;;;;;6.47;2.90;;;1.10;99.90;;;;;;5077811;27;20202;-65
2023/03/16 00:13:22;;;;;;;6.53;2.43;;;1.20;99.90;;;;;;5096008;27;20220;-65
2023/03/16 00:15:53;;;;;;;5.50;2.80;;;1.10;99.90;;;;;;5091653;27;20691;-64
2023/03/16 00:18:21;;;;;;;6.00;2.43;;;1.10;99.90;;;;;;5100275;27;20666;-65
2023/03/16 00:20:52;;;;;;;2.93;2.17;;;1.10;99.90;;;;;;5097521;27;21318;-65
2023/03/16 00:23:25;;;;;;;7.07;2.63;;;1.10;99.90;;;;;;5099246;27;20335;-65
2023/03/16 00:25:53;;;;;;;6.60;2.20;;;1.10;99.90;;;;;;5074324;27;20290;-65
2023/03/16 00:28:20;;;;;;;4.17;2.23;;;1.20;99.90;;;;;;5091538;27;20447;-65
2023/03/16 00:30:48;;;;;;;3.47;2.30;;;1.20;99.90;;;;;;5096801;27;20281;-65
2023/03/16 00:33:14;;;;;;;5.73;2.77;;;1.30;99.90;;;;;;5090141;27;20311;-65
2023/03/16 00:35:49;;;;;;;5.17;2.20;;;1.20;99.90;;;;;;5109715;27;20212;-65
2023/03/16 00:38:17;;;;;;;5.23;2.10;;;1.30;99.90;;;;;;5099913;27;20208;-64
2023/03/16 00:40:44;;;;;;;3.23;2.03;;;1.30;99.90;;;;;;5091265;27;20220;-65
2023/03/16 00:43:11;;;;;;;4.73;2.57;;;1.30;99.90;;;;;;5035968;27;1091203;-65
2023/03/16 00:45:38;;;;;;;8.40;2.37;;;1.20;99.90;;;;;;5074053;28;20194;-64
2023/03/16 00:48:05;;;;;;;5.67;2.30;;;1.10;99.90;;;;;;5072201;27;20229;-64
2023/03/16 00:50:32;;;;;;;3.30;2.40;;;1.00;99.90;;;;;;5090306;28;20643;-65
2023/03/16 00:52:58;;;;;;;5.33;2.43;;;1.00;99.90;;;;;;5070273;28;20840;-65
2023/03/16 00:55:27;;;;;;;4.17;2.17;;;1.00;99.90;;;;;;5078046;27;20227;-65
2023/03/16 00:57:54;;;;;;;4.93;2.40;;;1.00;99.90;;;;;;5051829;27;20295;-65
2023/03/16 01:00:24;;;;;;;3.63;2.60;;;1.00;99.90;;;;;;5069858;27;20224;-65
2023/03/16 01:02:50;;;;;;;6.23;2.80;;;1.00;99.90;;;;;;5047147;27;20204;-64
2023/03/16 01:05:17;;;;;;;4.83;2.37;;;1.00;99.90;;;;;;5081349;28;20320;-64
2023/03/16 01:07:44;;;;;;;6.63;2.50;;;1.00;99.90;;;;;;5070357;27;20652;-64
2023/03/16 01:10:12;;;;;;;3.73;2.30;;;1.10;99.90;;;;;;5082294;28;20213;-64
2023/03/16 01:12:40;;;;;;;8.67;2.40;;;1.10;99.90;;;;;;5052830;27;20205;-65
2023/03/16 01:15:09;;;;;;;2.07;1.80;;;1.10;99.90;;;;;;5068127;27;20193;-65
2023/03/16 01:17:36;;;;;;;4.40;2.03;;;1.10;99.90;;;;;;5080135;28;20210;-64
2023/03/16 01:20:10;;;;;;;4.50;2.00;;;1.10;99.90;;;;;;5074045;27;20661;-64
2023/03/16 01:22:37;;;;;;;2.00;1.80;;;1.10;99.90;;;;;;5072241;28;20198;-65
2023/03/16 01:25:05;;;;;;;4.67;2.10;;;1.10;99.90;;;;;;5082502;28;20188;-64
2023/03/16 01:27:32;;;;;;;7.23;2.30;;;1.10;99.90;;;;;;5082626;27;20221;-65
2023/03/16 01:30:01;;;;;;;3.07;2.00;;;1.10;99.90;;;;;;5039460;27;21085;-65
2023/03/16 01:32:27;;;;;;;5.03;2.33;;;1.10;99.90;;;;;;5075214;28;20671;-64
2023/03/16 01:34:54;;;;;;;3.70;2.00;;;1.10;99.90;;;;;;5069664;27;20542;-65
2023/03/16 01:37:21;;;;;;;4.90;2.30;;;1.10;99.90;;;;;;5083583;28;20204;-64
2023/03/16 01:39:48;;;;;;;5.00;1.97;;;1.20;99.90;;;;;;5075058;27;20229;-65
2023/03/16 01:42:15;;;;;;;4.03;2.00;;;1.20;99.90;;;;;;5084117;27;20415;-64
2023/03/16 01:44:54;;;;;;;7.20;2.30;;;1.20;99.90;;;;;;5053118;27;20274;-65
2023/03/16 01:47:23;;;;;;;3.27;1.93;;;1.30;99.90;;;;;;5064888;27;20217;-65
2023/03/16 01:49:53;;;;;;;3.60;2.00;;;1.30;99.90;;;;;;5073863;27;20253;-65
2023/03/16 01:52:25;;;;;;;4.50;2.00;;;1.30;99.90;;;;;;5078496;28;20192;-64
2023/03/16 01:54:54;;;;;;;3.23;1.93;;;1.30;99.90;;;;;;5070648;27;20211;-65
2023/03/16 01:57:23;;;;;;;2.00;1.73;;;1.30;99.90;;;;;;5079678;28;20237;-65
2023/03/16 01:59:53;;;;;;;3.20;1.80;;;1.40;99.90;;;;;;5072509;27;20212;-65
2023/03/16 02:02:26;;;;;;;5.80;1.83;;;1.40;99.90;;;;;;5072879;27;20301;-65
2023/03/16 02:04:58;;;;;;;5.57;2.00;;;1.30;99.90;;;;;;5067115;28;20208;-64
2023/03/16 02:07:27;;;;;;;3.57;2.10;;;1.30;99.90;;;;;;5081791;28;20206;-64
2023/03/16 02:09:58;;;;;;;4.00;1.87;;;1.30;99.90;;;;;;5066631;28;20199;-64
2023/03/16 02:12:25;;;;;;;3.40;2.10;;;1.30;99.90;;;;;;5078133;28;20745;-65
2023/03/16 02:14:52;;;;;;;3.97;2.40;;;1.30;99.90;;;;;;5076567;28;20213;-64
2023/03/16 02:17:23;;;;;;;3.40;2.00;;;1.30;99.90;;;;;;5051748;28;20218;-65
2023/03/16 02:20:00;;;;;;;3.83;2.13;;;1.30;99.90;;;;;;5074844;28;20206;-65
2023/03/16 02:22:28;;;;;;;4.17;1.97;;;1.30;99.90;;;;;;5081933;28;20718;-64
2023/03/16 02:24:55;;;;;;;6.87;2.33;;;1.30;99.90;;;;;;5066908;28;20664;-65
2023/03/16 02:27:29;;;;;;;3.23;1.70;;;1.20;99.90;;;;;;5084337;28;20553;-64
2023/03/16 02:30:07;;;;;;;4.03;1.77;;;1.20;99.90;;;;;;5075975;28;20194;-64
2023/03/16 02:32:36;;;;;;;4.07;2.20;;;1.20;99.90;;;;;;5058339;28;20207;-65
2023/03/16 02:35:03;;;;;;;3.90;1.80;;;1.10;99.90;;;;;;5080566;28;20337;-64
2023/03/16 02:37:32;;;;;;;6.83;2.50;;;1.20;99.90;;;;;;5073632;28;20237;-64
2023/03/16 02:39:59;;;;;;;2.73;1.83;;;1.20;99.90;;;;;;5062602;28;20201;-64
2023/03/16 02:42:27;;;;;;;1.93;1.60;;;1.20;99.90;;;;;;5087319;28;20192;-64
2023/03/16 02:44:57;;;;;;;6.43;2.67;;;1.20;99.90;;;;;;5103366;27;20197;-64
2023/03/16 02:47:33;;;;;;;3.87;2.30;;;1.30;99.90;;;;;;5103371;27;20193;-64
2023/03/16 02:50:01;;;;;;;3.10;1.77;;;1.30;99.90;;;;;;5069569;27;21011;-64
2023/03/16 02:52:28;;;;;;;3.03;1.73;;;1.30;99.90;;;;;;5097968;27;20208;-64
2023/03/16 02:54:54;;;;;;;4.07;2.53;;;1.30;99.90;;;;;;5088725;27;20209;-65
2023/03/16 02:57:21;;;;;;;4.43;1.60;;;1.30;99.90;;;;;;5102027;27;20202;-65
2023/03/16 02:59:48;;;;;;;2.43;1.67;;;1.30;99.90;;;;;;5099043;27;20201;-64
2023/03/16 03:02:15;;;;;;;2.63;1.80;;;1.30;99.90;;;;;;5102602;27;20501;-64
2023/03/16 03:04:45;;;;;;;2.63;1.60;;;1.30;99.90;;;;;;5073077;27;20214;-65
2023/03/16 03:07:13;;;;;;;4.23;1.60;;;1.30;99.90;;;;;;5092347;27;20209;-64
2023/03/16 03:09:40;;;;;;;2.27;1.77;;;1.30;99.90;;;;;;5104934;27;20264;-65
2023/03/16 03:12:08;;;;;;;1.87;1.60;;;1.20;99.90;;;;;;5092180;27;20546;-65
2023/03/16 03:14:36;;;;;;;4.13;1.70;;;1.30;99.90;;;;;;5094809;27;20222;-64
2023/03/16 03:17:04;;;;;;;7.57;2.63;;;1.30;99.90;;;;;;5098616;27;20748;-64
2023/03/16 03:19:32;;;;;;;4.73;1.93;;;1.30;99.90;;;;;;5078676;27;20899;-64
2023/03/16 03:22:03;;;;;;;3.50;1.67;;;1.30;99.90;;;;;;5087774;27;20201;-65
2023/03/16 03:24:30;;;;;;;3.83;2.03;;;1.20;99.90;;;;;;5102597;27;20217;-64
2023/03/16 03:26:57;;;;;;;2.67;1.70;;;1.20;99.90;;;;;;5084554;27;20198;-65
2023/03/16 03:29:24;;;;;;;2.93;1.90;;;1.20;99.90;;;;;;5099498;27;20236;-65
2023/03/16 03:31:51;;;;;;;5.10;2.03;;;1.20;99.90;;;;;;5097740;27;20968;-64
2023/03/16 03:34:18;;;;;;;3.73;1.67;;;1.20;99.90;;;;;;5073198;27;20732;-64
2023/03/16 03:36:45;;;;;;;8.37;2.13;;;1.20;99.90;;;;;;5102444;27;20204;-65
2023/03/16 03:39:13;;;;;;;5.10;2.30;;;1.20;99.90;;;;;;5091461;27;20568;-64
2023/03/16 03:41:40;;;;;;;4.07;2.00;;;1.20;99.90;;;;;;5086662;27;20204;-64
2023/03/16 03:44:06;;;;;;;6.97;2.43;;;1.20;99.90;;;;;;5085129;27;20225;-64
2023/03/16 03:46:33;;;;;;;4.70;2.20;;;1.20;99.90;;;;;;5072394;28;20881;-64
2023/03/16 03:49:03;;;;;;;3.00;1.93;;;1.20;99.90;;;;;;5079969;28;20272;-64
2023/03/16 03:51:30;;;;;;;3.13;2.00;;;1.20;99.90;;;;;;5063316;28;20210;-64
2023/03/16 03:53:58;;;;;;;4.67;2.23;;;1.20;99.90;;;;;;5051263;28;20231;-64
2023/03/16 03:56:26;;;;;;;3.83;2.03;;;1.20;99.90;;;;;;5071071;28;20203;-64
2023/03/16 03:58:53;;;;;;;2.33;1.87;;;1.20;99.90;;;;;;5039660;28;20651;-65
2023/03/16 04:01:20;;;;;;;5.80;2.07;;;1.20;99.90;;;;;;5062687;28;20213;-65
2023/03/16 04:03:48;;;;;;;5.83;2.00;;;1.30;99.90;;;;;;5074944;28;20193;-64
2023/03/16 04:06:15;;;;;;;4.30;2.40;;;1.30;99.90;;;;;;5055521;27;20298;-64
2023/03/16 04:08:42;;;;;;;4.83;2.10;;;1.30;99.90;;;;;;5061265;28;20332;-65
2023/03/16 04:11:10;;;;;;;3.63;2.30;;;1.40;99.90;;;;;;5075437;28;20198;-64
2023/03/16 04:13:38;;;;;;;4.50;1.70;;;1.30;99.90;;;;;;5065812;28;20214;-64
2023/03/16 04:16:06;;;;;;;3.73;2.00;;;1.30;99.90;;;;;;5059768;27;20733;-65
2023/03/16 04:18:37;;;;;;;2.53;2.07;;;1.40;99.90;;;;;;5081448;28;20195;-64
2023/03/16 04:21:05;;;;;;;4.03;1.80;;;1.40;99.90;;;;;;5051515;28;20301;-65
2023/03/16 04:23:33;;;;;;;10.13;2.63;;;1.40;99.90;;;;;;5076788;27;20592;-64
2023/03/16 04:26:00;;;;;;;3.23;2.27;;;1.40;99.90;;;;;;5071259;27;21173;-64
2023/03/16 04:28:27;;;;;;;9.37;2.50;;;1.40;99.90;;;;;;5076202;27;20217;-64
2023/03/16 04:30:56;;;;;;;5.07;2.83;;;1.40;99.90;;;;;;5072166;27;20199;-65
2023/03/16 04:33:23;;;;;;;6.07;2.37;;;1.40;99.90;;;;;;5077384;28;20195;-64
2023/03/16 04:35:51;;;;;;;7.93;2.50;;;1.50;99.90;;;;;;5075152;27;20204;-64
2023/03/16 04:38:18;;;;;;;4.13;2.17;;;1.50;99.90;;;;;;5051271;28;20839;-64
2023/03/16 04:40:45;;;;;;;4.47;2.63;;;1.50;99.90;;;;;;5060294;27;20486;-64
2023/03/16 04:43:12;;;;;;;7.63;2.40;;;1.50;99.90;;;;;;5070273;28;20733;-64
2023/03/16 04:45:40;;;;;;;4.43;2.53;;;1.50;99.90;;;;;;5059877;27;20213;-64
2023/03/16 04:48:09;;;;;;;5.03;2.60;;;1.60;99.90;;;;;;5069519;28;20199;-64
2023/03/16 04:50:36;;;;;;;4.63;2.47;;;1.60;99.90;;;;;;5077485;28;20569;-64
2023/03/16 04:53:04;;;;;;;3.60;2.50;;;1.60;99.90;;;;;;5049063;27;20215;-65
2023/03/16 04:55:31;;;;;;;6.87;2.57;;;1.60;99.90;;;;;;5071511;28;20288;-64
2023/03/16 04:57:58;;;;;;;10.50;2.87;;;1.60;99.90;;;;;;5069092;27;20335;-64
2023/03/16 05:00:25;;;;;;;3.93;2.40;;;1.60;99.90;;;;;;5063700;27;20233;-64
2023/03/16 05:02:52;;;;;;;7.27;2.30;;;1.60;99.90;;;;;;5063026;28;20749;-64
2023/03/16 05:05:21;;;;;;;5.40;2.50;;;1.60;99.90;;;;;;5076159;27;20201;-65
2023/03/16 05:07:48;;;;;;;13.23;2.47;;;1.60;99.90;;;;;;5072905;27;20217;-64
2023/03/16 05:10:18;;;;;;;5.07;2.63;;;1.60;99.90;;;;;;5042673;27;20231;-64
2023/03/16 05:12:45;;;;;;;4.77;2.50;;;1.60;99.90;;;;;;5055067;27;20333;-64
2023/03/16 05:15:13;;;;;;;4.40;2.63;;;1.60;99.90;;;;;;5066077;28;20203;-64
2023/03/16 05:17:41;;;;;;;4.23;2.70;;;1.60;99.90;;;;;;5072170;28;20198;-64
2023/03/16 05:20:11;;;;;;;7.53;2.30;;;1.60;99.90;;;;;;5077384;28;20763;-64
2023/03/16 05:22:40;;;;;;;5.50;2.30;;;1.60;99.90;;;;;;5072216;28;20748;-64
2023/03/16 05:25:13;;;;;;;5.17;2.50;;;1.60;99.90;;;;;;5048856;28;20241;-65
2023/03/16 05:27:41;;;;;;;6.33;2.87;;;1.60;99.90;;;;;;5053729;27;20211;-65
2023/03/16 05:30:09;;;;;;;7.23;2.40;;;1.60;99.90;;;;;;5068511;27;20290;-65
2023/03/16 05:32:36;;;;;;;8.00;2.50;;;1.60;99.90;;;;;;5054103;28;20222;-65
2023/03/16 05:35:03;;;;;;;5.03;2.10;;;1.60;99.90;;;;;;5075355;28;20192;-64
2023/03/16 05:37:30;;;;;;;4.83;2.70;;;1.60;99.90;;;;;;5071304;28;20206;-64
2023/03/16 05:39:58;;;;;;;5.53;2.37;;;1.60;99.90;;;;;;5045596;27;20248;-64
2023/03/16 05:42:26;;;;;;;4.13;2.50;;;1.70;99.90;;;;;;5066219;27;20222;-64
2023/03/16 05:44:53;;;;;;;8.40;2.60;;;1.70;99.90;;;;;;5089061;27;20485;-64
2023/03/16 05:47:20;;;;;;;4.00;2.27;;;1.70;99.90;;;;;;5089885;27;20205;-64
2023/03/16 05:49:47;;;;;;;4.37;2.37;;;1.80;99.90;;;;;;5104688;27;20253;-64
2023/03/16 05:52:14;;;;;;;5.77;2.43;;;1.80;99.90;;;;;;5106392;27;20761;-64
2023/03/16 05:54:41;;;;;;;3.63;2.57;;;1.90;99.90;;;;;;5073245;27;21558;-65
2023/03/16 05:57:10;;;;;;;3.20;2.20;;;1.90;99.90;;;;;;5089768;27;20782;-64
2023/03/16 05:59:37;;;;;;;5.90;2.67;;;1.90;99.90;;;;;;5098332;27;20675;-64
2023/03/16 06:02:04;;;;;;;5.37;2.17;;;1.90;99.90;;;;;;5091924;27;20736;-65
2023/03/16 06:04:31;;;;;;;6.03;2.57;;;2.00;99.90;;;;;;5093046;27;20198;-64
2023/03/16 06:06:57;;;;;;;6.53;2.60;;;2.00;99.90;;;;;;5091027;27;20452;-64
2023/03/16 06:09:24;;;;;;;6.80;2.43;;;2.00;99.90;;;;;;5095833;27;20229;-64
2023/03/16 06:11:51;;;;;;;5.57;2.33;;;2.00;99.90;;;;;;5067905;27;20411;-64
2023/03/16 06:14:20;;;;;;;2.80;2.00;;;2.00;99.90;;;;;;5079344;27;20205;-64
2023/03/16 06:16:46;;;;;;;4.07;2.30;;;2.10;99.90;;;;;;5077366;27;20218;-64
2023/03/16 06:19:13;;;;;;;4.27;2.57;;;2.10;99.90;;;;;;5087990;27;20208;-64
2023/03/16 06:21:40;;;;;;;5.97;2.17;;;2.10;99.90;;;;;;5087971;27;20238;-65
2023/03/16 06:24:08;;;;;;;3.90;2.50;;;2.10;99.90;;;;;;5102184;27;20679;-64
2023/03/16 06:26:35;;;;;;;3.83;2.53;;;2.10;99.90;;;;;;5082046;27;20206;-65
2023/03/16 06:29:02;;;;;;;5.33;2.57;;;2.20;99.90;;;;;;5085568;27;20230;-64
2023/03/16 06:31:32;;;;;;;7.67;2.53;;;2.20;99.90;;;;;;5076235;28;20745;-65
2023/03/16 06:33:59;;;;;;;6.00;2.33;;;2.30;99.90;;;;;;5079152;27;20443;-65
2023/03/16 06:36:27;;;;;;;9.80;2.70;;;2.30;99.90;;;;;;5102650;27;20557;-65
2023/03/16 06:38:53;;;;;;;2.53;2.00;;;2.30;99.90;;;;;;5093343;27;20206;-65
2023/03/16 06:41:21;;;;;;;3.50;2.10;;;2.40;99.90;;;;;;5096854;27;20631;-64
2023/03/16 06:43:47;;;;;;;3.90;2.50;;;2.40;99.90;;;;;;5065619;27;20794;-65
2023/03/16 06:46:14;;;;;;;6.33;2.67;;;2.50;99.90;;;;;;5095398;27;21251;-65
2023/03/16 06:48:43;;;;;;;4.60;2.43;;;2.50;99.90;;;;;;5081515;27;20762;-65
2023/03/16 06:51:10;;;;;;;4.10;2.50;;;2.50;99.90;;;;;;5096621;27;20191;-65
2023/03/16 06:53:36;;;;;;;4.07;2.20;;;2.50;99.90;;;;;;5095326;27;20844;-64
2023/03/16 06:56:03;;;;;;;8.10;3.20;;;2.50;99.90;;;;;;5088234;27;20622;-65
2023/03/16 06:58:30;;;;;;;10.33;4.10;;;2.60;99.90;;;;;;5061192;27;20206;-65
2023/03/16 07:01:02;;;;;;;26.10;8.53;;;2.50;99.90;;;;;;5087918;27;20633;-64
2023/03/16 07:03:29;;;;;;;52.63;18.13;;;2.60;99.90;;;;;;5094805;27;20222;-65
2023/03/16 07:05:57;;;;;;;17.93;7.40;;;2.60;99.90;;;;;;5092276;27;20902;-65
2023/03/16 07:08:24;;;;;;;14.60;7.87;;;2.60;99.90;;;;;;5064883;27;20201;-65
2023/03/16 07:10:51;;;;;;;7.20;3.57;;;2.70;99.90;;;;;;5097133;27;20637;-65
2023/03/16 07:13:18;;;;;;;7.67;2.70;;;2.70;99.90;;;;;;5065607;27;20230;-64
2023/03/16 07:15:46;;;;;;;3.47;2.30;;;2.70;99.90;;;;;;5080512;27;20861;-65
2023/03/16 07:18:12;;;;;;;7.23;2.27;;;2.70;99.90;;;;;;5101602;27;20194;-64
2023/03/16 07:20:40;;;;;;;5.27;2.50;;;2.80;99.90;;;;;;5086940;27;20798;-65
2023/03/16 07:23:09;;;;;;;2.73;2.03;;;2.80;99.90;;;;;;5104996;27;20219;-65
2023/03/16 07:25:36;;;;;;;7.13;2.20;;;2.90;99.90;;;;;;5099754;27;20342;-65
2023/03/16 07:28:03;;;;;;;2.83;2.03;;;2.90;99.90;;;;;;5092169;27;20743;-65
2023/03/16 07:30:31;;;;;;;4.07;2.00;;;2.90;99.90;;;;;;5061946;27;20333;-65
2023/03/16 07:32:57;;;;;;;4.73;2.33;;;3.00;99.90;;;;;;5098497;27;20194;-64
2023/03/16 07:35:25;;;;;;;5.13;2.50;;;3.00;99.90;;;;;;5088271;27;20377;-65
2023/03/16 07:37:52;;;;;;;4.97;2.40;;;3.00;99.90;;;;;;5086754;27;20353;-64
2023/03/16 07:40:21;;;;;;;4.37;2.13;;;3.10;99.90;;;;;;5089812;27;20553;-65
2023/03/16 07:42:48;;;;;;;7.60;2.10;;;3.10;99.90;;;;;;5078995;27;20219;-65
2023/03/16 07:45:16;;;;;;;5.67;2.10;;;3.10;99.90;;;;;;5052603;27;20489;-65
2023/03/16 07:47:44;;;;;;;5.97;2.20;;;3.10;99.90;;;;;;5068108;27;20206;-65
2023/03/16 07:50:12;;;;;;;7.20;2.27;;;3.20;99.90;;;;;;5079032;28;20232;-65
2023/03/16 07:52:39;;;;;;;4.50;2.40;;;3.30;99.90;;;;;;5068686;28;20555;-65
2023/03/16 07:55:06;;;;;;;4.10;1.83;;;3.30;99.90;;;;;;5067213;28;20197;-65
2023/03/16 07:57:35;;;;;;;3.20;1.83;;;3.40;99.90;;;;;;5072059;28;20596;-65
2023/03/16 08:00:04;;;;;;;2.83;1.73;;;3.50;99.90;;;;;;5051990;28;20232;-65
2023/03/16 08:02:31;;;;;;;5.57;2.17;;;3.50;99.90;;;;;;5071027;28;20204;-65
2023/03/16 08:04:58;;;;;;;7.57;2.03;;;3.60;99.90;;;;;;5081904;28;20223;-65
2023/03/16 08:07:25;;;;;;;5.10;2.27;;;3.60;99.90;;;;;;5065494;27;20195;-65
2023/03/16 08:09:52;;;;;;;6.57;2.20;;;3.70;99.90;;;;;;5074872;27;20251;-65
2023/03/16 08:12:18;;;;;;;3.37;1.90;;;3.70;99.90;;;;;;5077392;28;20188;-65
2023/03/16 08:14:47;;;;;;;5.90;2.23;;;3.80;99.90;;;;;;5058547;28;20663;-65
2023/03/16 08:17:14;;;;;;;5.17;2.43;;;3.60;99.90;;;;;;5050003;27;20204;-65
2023/03/16 08:19:41;;;;;;;3.93;2.20;;;3.80;99.90;;;;;;5069148;27;20425;-65
2023/03/16 08:22:08;;;;;;;4.10;2.33;;;3.80;99.90;;;;;;5083909;28;20206;-65
2023/03/16 08:24:35;;;;;;;2.53;1.97;;;3.80;99.90;;;;;;5062642;27;20200;-65
2023/03/16 08:27:02;;;;;;;3.97;2.10;;;3.90;99.90;;;;;;5078314;27;20202;-65
2023/03/16 08:29:29;;;;;;;5.37;2.53;;;3.90;99.90;;;;;;5069394;27;20203;-65
2023/03/16 08:31:57;;;;;;;7.60;2.63;;;3.90;99.90;;;;;;5047555;27;20200;-65
2023/03/16 08:34:25;;;;;;;4.87;2.20;;;4.00;99.90;;;;;;5066572;27;20206;-64
2023/03/16 08:36:52;;;;;;;5.43;2.20;;;4.00;99.90;;;;;;5079401;27;20287;-65
2023/03/16 08:39:20;;;;;;;4.03;2.57;;;4.10;99.90;;;;;;5069254;27;20203;-65
2023/03/16 08:41:47;;;;;;;6.93;2.40;;;4.20;99.90;;;;;;5077418;27;20518;-65
2023/03/16 08:44:14;;;;;;;6.97;2.83;;;4.20;99.90;;;;;;5094102;27;20235;-64
2023/03/16 08:46:41;;;;;;;11.77;3.50;;;4.30;99.90;;;;;;5045454;27;21301;-65
2023/03/16 08:49:09;;;;;;;7.23;2.30;;;4.30;99.90;;;;;;5083778;27;20721;-65
2023/03/16 08:51:36;;;;;;;5.57;2.70;;;4.40;99.90;;;;;;5089440;27;20662;-65
2023/03/16 08:54:03;;;;;;;6.57;2.50;;;4.50;99.90;;;;;;5082137;27;20217;-65
2023/03/16 08:56:31;;;;;;;7.47;1.93;;;4.50;99.90;;;;;;5092783;27;20195;-65
2023/03/16 08:58:58;;;;;;;3.23;1.93;;;4.60;99.90;;;;;;5094623;27;20675;-65
2023/03/16 09:01:26;;;;;;;5.00;2.17;;;4.70;99.90;;;;;;5061875;27;20200;-65
2023/03/16 09:03:53;;;;;;;5.60;2.20;;;4.80;99.90;;;;;;5081454;27;20585;-65
2023/03/16 09:06:22;;;;;;;4.63;2.33;;;4.80;99.90;;;;;;5094177;27;20267;-65
2023/03/16 09:08:48;;;;;;;4.37;2.00;;;4.80;99.90;;;;;;5090383;27;20356;-65
2023/03/16 09:11:17;;;;;;;3.40;2.20;;;4.90;99.90;;;;;;5082142;27;20426;-66
2023/03/16 09:13:44;;;;;;;3.10;2.10;;;5.00;99.90;;;;;;5089550;27;20934;-65
2023/03/16 09:16:13;;;;;;;6.90;2.23;;;5.00;99.90;;;;;;5086881;27;20212;-65
2023/03/16 09:18:40;;;;;;;4.03;1.97;;;5.20;99.90;;;;;;5067847;27;20368;-65
2023/03/16 09:21:11;;;;;;;6.83;2.27;;;5.20;99.90;;;;;;5083323;27;20698;-65
2023/03/16 09:23:41;;;;;;;5.50;2.30;;;5.20;99.90;;;;;;5094432;27;20193;-65
2023/03/16 09:26:09;;;;;;;4.27;1.97;;;5.20;99.90;;;;;;5083188;27;20210;-65
2023/03/16 09:28:39;;;;;;;3.73;2.37;;;5.30;99.90;;;;;;5081485;27;20490;-65
2023/03/16 09:31:06;;;;;;;3.17;2.13;;;5.30;99.90;;;;;;5087917;27;20263;-65
2023/03/16 09:33:34;;;;;;;2.80;2.23;;;5.40;99.90;;;;;;5054643;27;20220;-65
2023/03/16 09:36:02;;;;;;;5.07;2.70;;;5.40;99.90;;;;;;5085163;27;20430;-65
2023/03/16 09:38:31;;;;;;;11.37;4.60;;;5.50;99.90;;;;;;5091256;27;20221;-65
2023/03/16 09:41:01;;;;;;;6.13;3.70;;;5.60;99.90;;;;;;5084405;27;20627;-65
2023/03/16 09:43:44;;;;;;;3.10;2.17;;;5.60;99.90;;;;;;5084705;27;20253;-65
2023/03/16 09:46:16;;;;;;;2.90;2.50;;;5.60;99.90;;;;;;5067093;27;20664;-65
2023/03/16 09:48:43;;;;;;;7.83;2.00;;;5.70;99.90;;;;;;5047211;28;20205;-65
2023/03/16 09:51:18;;;;;;;3.27;2.30;;;5.80;99.90;;;;;;5066677;28;20247;-65
2023/03/16 09:53:47;;;;;;;2.77;1.97;;;5.80;99.90;;;;;;5073216;28;20747;-65
2023/03/16 09:56:22;;;;;;;3.93;2.37;;;5.90;99.90;;;;;;5084586;27;20241;-65
2023/03/16 09:58:49;;;;;;;3.53;1.93;;;5.80;99.90;;;;;;5076923;27;20203;-64
2023/03/16 10:01:25;;;;;;;7.67;2.30;;;5.80;99.90;;;;;;5079969;28;20212;-65
2023/03/16 10:04:02;;;;;;;10.57;5.20;;;5.90;99.90;;;;;;5044839;27;20291;-65
2023/03/16 10:06:30;;;;;;;9.23;4.97;;;5.90;99.90;;;;;;5071765;27;20221;-65
2023/03/16 10:09:06;;;;;;;8.43;3.33;;;6.00;99.90;;;;;;5083814;28;20204;-65
2023/03/16 10:11:40;;;;;;;2.87;2.40;;;6.00;99.90;;;;;;5075008;28;20233;-65
2023/03/16 10:14:16;;;;;;;4.93;2.57;;;6.00;99.90;;;;;;5074450;28;20296;-65
2023/03/16 10:16:49;;;;;;;2.87;2.17;;;6.10;99.90;;;;;;5078545;28;20195;-65
2023/03/16 10:19:20;;;;;;;4.43;2.30;;;6.00;99.90;;;;;;5018799;28;20212;-65
2023/03/16 10:21:48;;;;;;;5.03;2.30;;;6.10;99.90;;;;;;5045871;28;20684;-65
2023/03/16 10:24:26;;;;;;;5.70;2.47;;;6.20;99.90;;;;;;5079042;28;20758;-65
2023/03/16 10:26:58;;;;;;;3.10;1.83;;;6.20;99.90;;;;;;5078797;28;20196;-65
2023/03/16 10:29:28;;;;;;;3.33;2.10;;;6.20;99.90;;;;;;5050508;28;20199;-65
2023/03/16 10:31:59;;;;;;;5.73;2.70;;;6.20;99.90;;;;;;5072042;28;20321;-65
2023/03/16 10:34:26;;;;;;;3.80;2.20;;;6.30;99.90;;;;;;5036571;27;20220;-65
2023/03/16 10:36:55;;;;;;;5.43;2.70;;;6.30;99.90;;;;;;5041910;28;20231;-65
2023/03/16 10:39:21;;;;;;;9.00;5.17;;;6.40;99.90;;;;;;5068321;27;20260;-65
2023/03/16 10:41:57;;;;;;;7.87;2.87;;;6.50;99.90;;;;;;5068586;28;20409;-65
2023/03/16 10:44:25;;;;;;;5.00;2.53;;;6.60;99.90;;;;;;5080653;27;20730;-65
2023/03/16 10:47:00;;;;;;;3.97;2.10;;;6.60;99.90;;;;;;5094501;27;20221;-65
2023/03/16 10:49:29;;;;;;;6.03;2.20;;;6.60;99.90;;;;;;5065016;27;20202;-65
2023/03/16 10:51:58;;;;;;;5.50;2.30;;;6.60;99.90;;;;;;5080041;27;20226;-65
2023/03/16 10:54:29;;;;;;;4.23;2.53;;;6.70;99.90;;;;;;5097685;27;20655;-65
2023/03/16 10:56:58;;;;;;;7.53;2.17;;;6.70;99.90;;;;;;5098841;27;20758;-65
2023/03/16 10:59:32;;;;;;;3.07;2.20;;;6.80;99.90;;;;;;5067381;27;20202;-65
2023/03/16 11:01:59;;;;;;;3.17;2.30;;;6.90;99.90;;;;;;5102084;27;20210;-65
2023/03/16 11:04:30;;;;;;;3.77;2.40;;;6.80;99.90;;;;;;5060470;27;20260;-65
2023/03/16 11:06:58;;;;;;;4.57;1.93;;;6.80;99.90;;;;;;5091235;27;20197;-65
2023/03/16 11:09:27;;;;;;;3.70;2.37;;;6.90;99.90;;;;;;5081305;27;20226;-65
2023/03/16 11:11:54;;;;;;;6.70;1.90;;;7.00;99.90;;;;;;5092519;27;20259;-65
2023/03/16 11:14:26;;;;;;;4.43;2.03;;;7.00;99.90;;;;;;5087133;27;20196;-65
2023/03/16 11:17:08;;;;;;;4.47;2.30;;;7.00;99.90;;;;;;5084117;27;20369;-65
2023/03/16 11:19:39;;;;;;;5.27;2.53;;;7.10;99.90;;;;;;5069647;27;21102;-65
2023/03/16 11:22:11;;;;;;;2.70;2.10;;;7.10;99.90;;;;;;5095183;27;20199;-65
2023/03/16 11:24:45;;;;;;;4.27;1.83;;;7.10;99.90;;;;;;5086999;27;20199;-65
2023/03/16 11:27:18;;;;;;;2.73;2.23;;;7.20;99.90;;;;;;5092869;27;20199;-65
2023/03/16 11:29:58;;;;;;;4.20;2.20;;;7.20;99.90;;;;;;5094427;27;20201;-65
2023/03/16 11:32:27;;;;;;;3.03;2.50;;;7.20;99.90;;;;;;5097892;27;20218;-65
2023/03/16 11:34:54;;;;;;;3.63;2.17;;;7.30;99.90;;;;;;5063893;27;20415;-65
2023/03/16 11:37:36;;;;;;;5.63;2.93;;;7.40;99.90;;;;;;5095495;27;20195;-65
2023/03/16 11:40:14;;;;;;;4.97;2.27;;;7.40;99.90;;;;;;5083048;27;20543;-65
2023/03/16 11:42:53;;;;;;;5.00;2.80;;;7.50;99.90;;;;;;5087284;27;20778;-65
2023/03/16 11:45:32;;;;;;;3.20;1.90;;;7.50;99.90;;;;;;5076647;27;23749;-65
2023/03/16 11:48:18;;;;;;;4.00;2.47;;;7.50;99.90;;;;;;5066895;27;20200;-65
2023/03/16 11:50:55;;;;;;;6.07;2.57;;;7.60;99.90;;;;;;5042181;28;20558;-65
2023/03/16 11:53:32;;;;;;;6.33;2.47;;;7.60;99.90;;;;;;5081143;28;20693;-65
2023/03/16 11:56:08;;;;;;;5.03;2.10;;;7.50;99.90;;;;;;5070241;27;20538;-65
2023/03/16 11:58:48;;;;;;;5.17;2.40;;;7.60;99.90;;;;;;5083163;28;20751;-65
2023/03/16 12:01:21;;;;;;;10.53;3.57;;;7.60;99.90;;;;;;5070229;28;20204;-65
2023/03/16 12:04:17;;;;;;;8.60;4.07;;;7.60;99.90;;;;;;5079185;28;20199;-65
2023/03/16 12:07:08;;;;;;;10.70;5.73;;;7.70;99.90;;;;;;5040540;27;20223;-65
2023/03/16 12:09:59;;;;;;;11.90;3.83;;;7.80;99.90;;;;;;5073871;27;20722;-65
2023/03/16 12:12:37;;;;;;;5.70;4.73;;;8.00;99.90;;;;;;5063426;27;20577;-65
2023/03/16 12:15:31;;;;;;;3.77;2.83;;;8.10;99.90;;;;;;5071872;27;20222;-65
2023/03/16 12:18:02;;;;;;;3.23;2.43;;;8.20;99.90;;;;;;5066181;27;20446;-65
2023/03/16 12:20:34;;;;;;;4.97;2.67;;;8.10;99.90;;;;;;5077872;28;20617;-65
2023/03/16 12:23:06;;;;;;;6.70;2.30;;;8.10;99.90;;;;;;5047785;27;21346;-65
2023/03/16 12:25:38;;;;;;;3.50;3.10;;;8.20;99.90;;;;;;5074137;28;20203;-65
2023/03/16 12:28:12;;;;;;;4.10;2.57;;;8.20;99.90;;;;;;5050870;27;20200;-65
2023/03/16 12:30:46;;;;;;;5.60;2.77;;;8.20;99.90;;;;;;5079143;27;21387;-65
2023/03/16 12:33:22;;;;;;;3.57;2.27;;;8.10;99.90;;;;;;5055628;27;20211;-65
2023/03/16 12:35:55;;;;;;;3.43;2.30;;;8.10;99.90;;;;;;5069064;27;20206;-65
2023/03/16 12:38:31;;;;;;;5.83;2.93;;;8.10;99.90;;;;;;5060687;28;20229;-65
2023/03/16 12:41:13;;;;;;;3.73;2.33;;;8.10;99.90;;;;;;5071300;27;20223;-66
2023/03/16 12:43:52;;;;;;;9.23;3.10;;;8.10;99.90;;;;;;5075590;27;20669;-65
2023/03/16 12:46:27;;;;;;;5.07;2.57;;;8.20;99.90;;;;;;5098821;27;20194;-66
2023/03/16 12:48:59;;;;;;;4.73;2.67;;;8.30;99.90;;;;;;5095809;27;20209;-65
2023/03/16 12:51:33;;;;;;;5.83;2.10;;;8.30;99.90;;;;;;5069118;27;20674;-65
2023/03/16 12:54:00;;;;;;;4.27;2.23;;;8.40;99.90;;;;;;5086875;27;20247;-65
2023/03/16 12:56:30;;;;;;;3.90;2.43;;;8.30;99.90;;;;;;5097110;27;20238;-65
2023/03/16 12:59:00;;;;;;;5.03;2.30;;;8.30;99.90;;;;;;5073738;27;20203;-65
2023/03/16 13:01:28;;;;;;;3.40;2.30;;;8.30;99.90;;;;;;5091295;27;20474;-65
2023/03/16 13:04:02;;;;;;;4.77;2.60;;;8.40;99.90;;;;;;5087130;27;20200;-66
2023/03/16 13:06:34;;;;;;;2.73;2.07;;;8.30;99.90;;;;;;5095569;27;20695;-66